หน้าหลัก
METAR-TAF:

METAR-TAF

ท่าอากาศยาน :

Carlsbad, นิวเม็กซิโก, สหรัฐอเมริกา

ละติจูด: 32-20-15N, ลองจิจูด: 104-15-48W, ความสูง: 1004 ม.

การสังเกตสภาพอากาศปัจจุบัน

รายงานได้ทำขึ้นเมื่อ 49 นาทีที่แล้ว ณ เวลา 03:53 UTC
ลม 14 นอตจากตะวันตก
อุณหภูมิ 29°C
ความชื้น 6%
ความกดอากาศ 1009 hPa
ทัศนวิสัย: 16.1 กม.
ท้องฟ้าแจ่มใส

METAR: KCNM 260353Z AUTO 26014KT 10SM CLR 29/M13 A2979 RMK AO2 SLP021 T02891128

เวลา: 22:42 (04:42 UTC)

การพยากรณ์

รายงานได้ทำขึ้นเมื่อ 1 ชั่วโมงและ 37 นาทีที่แล้ว ณ เวลา 03:05 UTC
การพยากรณ์มีผลตั้งแต่วันที่ 26 ณ เวลา 03 UTC จนถึงวันที่ 26 ณ เวลา 24 UTC
ลม 14 นอตจากตะวันตกโดยมีลมกระโชกได้ถึง20 นอต
ทัศนวิสัย: 10 กม.
มีเมฆน้อยที่ความสูง 25000 ฟุต

TAF: KCNM 260305Z 2603/2624 27014G20KT P6SM FEW250

สังเกตการณ์สภาพอากาศและพยากรณ์อากาศของสนามบินมากกว่า 4000 แห่ง (รายงาน METAR และ TAF).

สถานีที่ดูได้จะแสดงไว้ด้วยจุดสีเหลืองและสีแดงบนแผนที่.

เลื่อนเมาส์ไปเหนือจุดเพื่อดูชื่อสถานี.

แล้วคลิกเพื่อดูสังเกตการณ์และการพยากรณ์สภาพอากาศ.

ในการเปลี่ยนแผนที่: คลิกที่ปุ่มสีเขียวที่มีกากบาทสีดำเพื่อซูมเข้า; ที่ปุ่มสีเขียวที่มีขีดเพื่อซูมออก; หรือที่ลูกศรสีเขียวเพื่อไปยังแผนที่ที่อยู่ติดกัน.


METAR-TAF: